• Join FlightAware (Why Join?)
  • Login
  • US Flag 
12:46AM EDT


 

Airport Tracker/Info


-or-


 

Live Flight TrackerFlight Track Log ✈ SWA104 ✈ 17-Apr-2014 ✈ KPHX - KSNA

Flight Track Log - Related Links

Times and Time Zones

All times are in EDT time to prevent confusion due to time zone crossing. See the SWA104 flight status page for this flight to view local times or setup timezone preferences in your user account.

Time Position Orientation Groundspeed Altitude Reporting Facility
EDT Latitude Longitude Course Direction KTS MPH feet Rate Location/Type
03:03PM 33.4333 -112.0167 270° West 171 197 1,800  Level Phoenix TRACON
03:04PM 33.4333 -112.0667 270° West 171 197 3,500 2,220 Climbing Phoenix TRACON
03:05PM 33.4008 -112.1536 246° West 231 266 6,300 2,820 Climbing Albuquerque Center
03:06PM 33.3942 -112.2475 265° West 284 327 10,100 3,480 Climbing Albuquerque Center
03:07PM 33.4044 -112.3525 277° West 316 364 13,500 3,300 Climbing Albuquerque Center
03:08PM 33.4167 -112.4689 277° West 346 398 17,000 3,300 Climbing Albuquerque Center
03:09PM 33.4314 -112.6072 277° West 370 426 20,400 3,120 Climbing Albuquerque Center
03:10PM 33.4444 -112.7378 277° West 388 447 23,500 2,700 Climbing Albuquerque Center
03:11PM 33.4614 -112.8708 279° West 402 463 26,000 2,280 Climbing Albuquerque Center
03:12PM 33.4892 -113.0075 284° West 418 481 28,300 1,260 Climbing Albuquerque Center
03:14PM 33.5419 -113.2831 283° West 425 489 30,000 540 Climbing Los Angeles Center
03:15PM 33.5714 -113.4450 282° West 416 479 30,000  Level Los Angeles Center
03:16PM 33.5950 -113.5808 282° West 415 478 30,000  Level Los Angeles Center
03:17PM 33.6239 -113.7178 284° West 420 483 30,000  Level Los Angeles Center
03:18PM 33.6483 -113.8550 282° West 420 483 30,000  Level Los Angeles Center
03:19PM 33.6731 -113.9914 282° West 421 484 30,000  Level Los Angeles Center
03:20PM 33.6922 -114.1308 279° West 421 484 30,000  Level Los Angeles Center
03:21PM 33.7056 -114.2989 275° West 422 486 30,000  Level Los Angeles Center
03:22PM 33.7172 -114.4392 276° West 423 487 30,000  Level Los Angeles Center
03:24PM 33.7294 -114.5803 276° West 424 488 30,000  Level Los Angeles Center
03:25PM 33.7397 -114.7200 275° West 424 488 30,000  Level Los Angeles Center
03:26PM 33.7517 -114.8617 276° West 425 489 30,000  Level Los Angeles Center
03:27PM 33.7644 -115.0319 275° West 426 490 30,000 -480 Level Los Angeles Center
03:28PM 33.7747 -115.1728 275° West 426 490 29,100 -960 Descending Los Angeles Center
03:29PM 33.7861 -115.3133 276° West 426 490 28,100 -540 Descending Los Angeles Center
03:30PM 33.7956 -115.4547 275° West 426 490 28,000 -60 Descending Los Angeles Center
03:31PM 33.8056 -115.5944 275° West 426 490 28,000  Level Los Angeles Center
03:32PM 33.8175 -115.7628 275° West 424 488 28,000  Level Los Angeles Center
03:33PM 33.8269 -115.9036 275° West 424 488 28,000 -600 Level Los Angeles Center
03:34PM 33.8375 -116.0458 275° West 425 489 26,800 -1,200 Descending Los Angeles Center
03:35PM 33.8467 -116.1844 275° West 425 489 25,600 -1,680 Descending Los Angeles Center
03:36PM 33.8558 -116.3175 275° West 410 472 23,300 -2,460 Descending Los Angeles Center
03:37PM 33.8672 -116.4733 275° West 395 455 20,600 -2,400 Descending Los Angeles Center
03:38PM 33.8756 -116.5986 275° West 382 440 18,400 -2,100 Descending Los Angeles Center
03:39PM 33.8844 -116.7194 275° West 367 422 16,300 -2,100 Descending Los Angeles Center
03:40PM 33.8883 -116.8361 272° West 357 411 14,100 -1,560 Descending Los Angeles Center
03:41PM 33.8833 -116.9167 266° West 347 399 13,800 -1,020 Descending Southern California TRACON
03:42PM 33.8667 -117.0333 260° West 347 399 12,500 -1,440 Descending Southern California TRACON
03:43PM 33.8500 -117.1500 260° West 339 390 11,000 -1,320 Descending Southern California TRACON
03:44PM 33.8333 -117.2500 259° West 309 356 9,900 -1,260 Descending Southern California TRACON
03:45PM 33.8333 -117.3500 270° West 294 338 8,500 -1,260 Descending Southern California TRACON
03:45PM 33.8253 -117.3856 255° West 295 339 8,000 -360 Descending Los Angeles Center
03:46PM 33.8100 -117.4889 260° West 261 300 8,000 -60 Level Los Angeles Center
03:47PM 33.7964 -117.5672 258° West 244 281 7,900 -720 Descending Los Angeles Center
03:48PM 33.7867 -117.6414 261° West 233 268 6,500 -1,380 Descending Los Angeles Center
03:49PM 33.8261 -117.7058 306° West 236 272 5,100 -1,260 Descending Los Angeles Center
03:50PM 33.8403 -117.7728 284° West 227 261 4,000 -1,020 Descending Los Angeles Center
03:51PM 33.7906 -117.8042 208° Southwest 195 224 3,000 -840 Descending Los Angeles Center
03:53PM 33.7469 -117.8214 198° South 170 196 2,300 -960 Descending Los Angeles Center
03:54PM 33.7122 -117.8461 211° Southwest 154 177 1,000 -720 Descending Los Angeles Center
03:55PM 33.6806 -117.8656 207° Southwest 141 162 800 420 Descending Los Angeles Center
03:56PM 33.6333 -117.9000 211° Southwest 210 242 2,000 840 Climbing Southern California TRACON
03:57PM 33.5833 -117.9333 209° Southwest 223 257 2,600 540 Climbing Southern California TRACON
03:58PM 33.6167 -117.9833 309° West 221 254 3,100 180 Climbing Southern California TRACON
03:59PM 33.6786 -117.9883 356° North 221 254 3,000  Descending Los Angeles Center
04:00PM 33.7333 -117.9667 18° North 211 243 3,100 -180 Climbing Southern California TRACON
04:01PM 33.7667 -117.9167 51° Northeast 194 223 2,700 -720 Descending Southern California TRACON
04:02PM 33.7667 -117.8667 90° East 162 186 1,600 -840 Descending Southern California TRACON
04:03PM 33.7333 -117.8333 140° Southeast 145 167 1,100 -600 Descending Southern California TRACON
04:04PM 33.7000 -117.8500 203° Southwest 129 148 500 -660 Descending Southern California TRACON